createdAt,value
2018-03-28T00:01:35.540Z,8.10
2018-03-28T00:04:01.938Z,8.10
2018-03-28T00:06:28.399Z,8.20
2018-03-28T00:08:54.787Z,8.20
2018-03-28T00:11:21.229Z,8.30
2018-03-28T00:13:47.630Z,8.40
2018-03-28T00:16:14.733Z,8.40
2018-03-28T00:18:41.043Z,8.40
2018-03-28T00:21:07.396Z,8.40
2018-03-28T00:23:33.757Z,8.30
2018-03-28T00:26:00.141Z,8.30
2018-03-28T00:28:26.563Z,8.30
2018-03-28T00:30:53.745Z,8.10
2018-03-28T00:33:20.130Z,8.10
2018-03-28T00:35:46.525Z,8.20
2018-03-28T00:38:12.992Z,8.30
2018-03-28T00:40:39.346Z,8.20
2018-03-28T00:43:05.703Z,8.30
2018-03-28T00:45:32.871Z,8.20
2018-03-28T00:47:59.294Z,8.30
2018-03-28T00:50:25.690Z,8.20
2018-03-28T00:52:52.121Z,8.10
2018-03-28T00:55:18.448Z,8.00
2018-03-28T00:57:44.731Z,8.20
2018-03-28T01:00:11.029Z,8.30
2018-03-28T01:02:37.332Z,8.20
2018-03-28T01:05:04.401Z,8.30
2018-03-28T01:07:31.422Z,8.20
2018-03-28T01:09:57.780Z,8.20
2018-03-28T01:12:24.030Z,8.20
2018-03-28T01:14:51.055Z,8.20
2018-03-28T01:17:17.349Z,8.20
2018-03-28T01:19:43.622Z,8.30
2018-03-28T01:22:09.914Z,8.20
2018-03-28T01:24:36.964Z,8.20
2018-03-28T01:27:03.387Z,8.20
2018-03-28T01:29:29.706Z,7.90
2018-03-28T01:31:55.984Z,8.10
2018-03-28T01:34:22.277Z,8.10
2018-03-28T01:36:49.323Z,8.10
2018-03-28T01:39:16.349Z,8.30
2018-03-28T01:41:42.652Z,8.30
2018-03-28T01:44:08.957Z,8.40
2018-03-28T01:46:35.966Z,8.40
2018-03-28T01:49:02.253Z,8.40
2018-03-28T01:51:28.525Z,8.40
2018-03-28T01:53:55.529Z,8.40
2018-03-28T01:56:21.801Z,8.40
2018-03-28T01:58:48.063Z,8.40
2018-03-28T02:01:15.063Z,8.30
2018-03-28T02:03:41.337Z,8.30
2018-03-28T02:06:08.374Z,8.50
2018-03-28T02:08:34.679Z,8.40
2018-03-28T02:11:00.957Z,8.50
2018-03-28T02:13:27.212Z,8.50
2018-03-28T02:15:53.519Z,8.50
2018-03-28T02:18:19.784Z,8.60
2018-03-28T02:20:46.057Z,8.60
2018-03-28T02:23:12.326Z,8.60
2018-03-28T02:25:39.332Z,8.60
2018-03-28T02:28:05.596Z,8.60
2018-03-28T02:30:32.627Z,8.70
2018-03-28T02:32:58.903Z,8.70
2018-03-28T02:35:25.150Z,8.80
2018-03-28T02:37:52.125Z,8.70
2018-03-28T02:40:18.378Z,8.70
2018-03-28T02:42:44.637Z,8.80
2018-03-28T02:45:10.887Z,8.80
2018-03-28T02:47:37.129Z,8.80
2018-03-28T02:50:03.378Z,8.80
2018-03-28T02:52:29.613Z,8.90
2018-03-28T02:54:55.888Z,8.80
2018-03-28T02:57:22.108Z,8.80
2018-03-28T02:59:48.465Z,8.80
2018-03-28T03:02:15.469Z,8.90
2018-03-28T03:04:41.709Z,8.90
2018-03-28T03:07:07.966Z,9.00
2018-03-28T03:09:34.235Z,9.00
2018-03-28T03:12:00.489Z,8.90
2018-03-28T03:14:27.464Z,9.00
2018-03-28T03:16:54.437Z,9.00
2018-03-28T03:19:20.692Z,9.00
2018-03-28T03:21:46.965Z,9.00
2018-03-28T03:24:13.201Z,9.00
2018-03-28T03:26:39.459Z,9.00
2018-03-28T03:29:05.718Z,9.00
2018-03-28T03:31:32.560Z,9.00
2018-03-28T03:33:58.790Z,9.00
2018-03-28T03:36:25.052Z,9.00
2018-03-28T03:38:51.284Z,8.90
2018-03-28T03:41:18.293Z,8.90
2018-03-28T03:43:44.543Z,8.90
2018-03-28T03:46:10.793Z,8.90
2018-03-28T03:48:37.132Z,8.90
2018-03-28T03:51:03.407Z,8.80
2018-03-28T03:53:29.650Z,8.90
2018-03-28T03:55:55.893Z,8.90
2018-03-28T03:58:22.893Z,9.00
2018-03-28T04:00:49.128Z,9.00
2018-03-28T04:03:15.376Z,9.00
2018-03-28T04:05:41.607Z,9.00
2018-03-28T04:08:07.881Z,9.10
2018-03-28T04:10:34.142Z,9.00
2018-03-28T04:13:00.386Z,9.00
2018-03-28T04:15:26.626Z,8.90
2018-03-28T04:17:52.862Z,9.00
2018-03-28T04:20:19.092Z,9.00
2018-03-28T04:22:45.325Z,9.10
2018-03-28T04:25:11.578Z,9.10
2018-03-28T04:27:37.813Z,9.10
2018-03-28T04:30:04.067Z,9.20
2018-03-28T04:32:30.314Z,9.20
2018-03-28T04:34:56.561Z,9.20
2018-03-28T04:37:22.885Z,9.20
2018-03-28T04:39:50.614Z,9.20
2018-03-28T04:42:17.625Z,9.20
2018-03-28T04:44:43.877Z,9.20
2018-03-28T04:47:10.126Z,9.20
2018-03-28T04:49:36.378Z,9.00
2018-03-28T04:52:02.935Z,9.00
2018-03-28T04:54:29.203Z,9.10
2018-03-28T04:56:55.534Z,9.10
2018-03-28T04:59:23.274Z,9.10
2018-03-28T05:01:50.274Z,9.20
2018-03-28T05:04:16.564Z,9.20
2018-03-28T05:06:42.818Z,9.10
2018-03-28T05:09:09.890Z,9.10
2018-03-28T05:11:36.855Z,9.10
2018-03-28T05:14:03.870Z,9.20
2018-03-28T05:16:30.105Z,9.20
2018-03-28T05:18:56.337Z,9.20
2018-03-28T05:21:22.586Z,9.10
2018-03-28T05:23:50.131Z,9.20
2018-03-28T05:26:16.386Z,9.10
2018-03-28T05:28:42.654Z,9.20
2018-03-28T05:31:08.926Z,9.20
2018-03-28T05:33:35.225Z,9.20
2018-03-28T05:36:01.489Z,9.20
2018-03-28T05:38:27.732Z,9.20
2018-03-28T05:40:53.992Z,9.20
2018-03-28T05:43:20.242Z,9.30
2018-03-28T05:45:47.256Z,9.20
2018-03-28T05:48:14.255Z,9.20
2018-03-28T05:50:40.529Z,9.20
2018-03-28T05:53:06.767Z,9.20
2018-03-28T05:55:33.058Z,9.20
2018-03-28T05:57:59.325Z,9.10
2018-03-28T06:00:26.321Z,9.20
2018-03-28T06:02:52.595Z,9.20
2018-03-28T06:05:18.886Z,9.10
2018-03-28T06:07:45.140Z,9.10
2018-03-28T06:10:11.492Z,9.10
2018-03-28T06:12:37.751Z,9.20
2018-03-28T06:15:04.025Z,9.20
2018-03-28T06:17:30.334Z,9.30
2018-03-28T06:19:57.313Z,9.30
2018-03-28T06:22:24.293Z,9.30
2018-03-28T06:24:51.330Z,9.20
2018-03-28T06:27:18.356Z,9.10
2018-03-28T06:29:44.616Z,9.10
2018-03-28T06:32:10.903Z,9.10
2018-03-28T06:34:37.337Z,9.10
2018-03-28T06:37:03.774Z,9.00
2018-03-28T06:39:30.047Z,9.00
2018-03-28T06:41:56.355Z,8.80
2018-03-28T06:44:22.671Z,8.80
2018-03-28T06:46:48.927Z,8.80
2018-03-28T06:49:15.191Z,8.80
2018-03-28T06:51:42.205Z,8.90
2018-03-28T06:54:08.474Z,8.90
2018-03-28T06:56:34.774Z,8.80
2018-03-28T06:59:01.037Z,8.80
2018-03-28T07:01:27.371Z,8.90
2018-03-28T07:03:53.686Z,9.00
2018-03-28T07:06:19.951Z,9.10
2018-03-28T07:08:46.238Z,9.10
2018-03-28T07:11:12.552Z,9.20
2018-03-28T07:13:38.853Z,9.20
2018-03-28T07:16:08.249Z,9.30
2018-03-28T07:18:34.562Z,9.30
2018-03-28T07:21:00.854Z,9.20
2018-03-28T07:23:27.131Z,9.30
2018-03-28T07:25:53.382Z,9.20
2018-03-28T07:28:19.601Z,9.20
2018-03-28T07:30:46.565Z,9.20
2018-03-28T07:33:12.813Z,9.20
2018-03-28T07:35:39.092Z,9.30
2018-03-28T07:38:06.082Z,9.20
2018-03-28T07:40:32.365Z,9.20
2018-03-28T07:42:59.374Z,9.40
2018-03-28T07:45:25.599Z,9.40
2018-03-28T07:47:51.838Z,9.40
2018-03-28T07:50:18.079Z,9.40
2018-03-28T07:52:45.032Z,9.30
2018-03-28T07:55:12.073Z,9.50
2018-03-28T07:57:40.253Z,9.40
2018-03-28T08:00:06.517Z,9.40
2018-03-28T08:02:33.602Z,9.60
2018-03-28T08:04:59.845Z,9.60
2018-03-28T08:07:26.159Z,9.80
2018-03-28T08:09:53.138Z,10.00
2018-03-28T08:12:19.414Z,10.00
2018-03-28T08:14:45.626Z,10.10
2018-03-28T08:17:11.870Z,10.10
2018-03-28T08:19:38.840Z,10.30
2018-03-28T08:22:09.149Z,10.20
2018-03-28T08:24:36.089Z,10.30
2018-03-28T08:27:02.370Z,10.50
2018-03-28T08:29:29.386Z,10.70
2018-03-28T08:31:55.609Z,10.70
2018-03-28T08:34:21.844Z,10.70
2018-03-28T08:36:48.069Z,10.70
2018-03-28T08:39:17.352Z,10.50
2018-03-28T08:41:43.624Z,10.60
2018-03-28T08:44:09.874Z,10.50
2018-03-28T08:46:36.148Z,10.50
2018-03-28T08:49:02.416Z,10.40
2018-03-28T08:51:28.647Z,10.50
2018-03-28T08:53:54.886Z,10.30
2018-03-28T08:56:21.136Z,10.30
2018-03-28T08:58:47.378Z,10.20
2018-03-28T09:01:13.626Z,10.30
2018-03-28T09:03:39.854Z,10.40
2018-03-28T09:06:06.862Z,10.50
2018-03-28T09:08:33.126Z,10.50
2018-03-28T09:11:00.115Z,10.80
2018-03-28T09:13:26.362Z,10.80
2018-03-28T09:15:52.617Z,11.10
2018-03-28T09:18:19.569Z,11.70
2018-03-28T09:20:46.588Z,11.70
2018-03-28T09:23:12.814Z,11.70
2018-03-28T09:25:39.068Z,11.90
2018-03-28T09:28:05.358Z,12.10
2018-03-28T09:30:31.630Z,12.50
2018-03-28T09:32:58.734Z,12.60
2018-03-28T09:35:25.030Z,12.50
2018-03-28T09:37:51.294Z,12.70
2018-03-28T09:40:17.554Z,12.70
2018-03-28T09:42:43.922Z,12.70
2018-03-28T09:45:10.946Z,12.60
2018-03-28T09:47:37.212Z,12.60
2018-03-28T09:50:04.264Z,12.60
2018-03-28T09:52:30.537Z,12.60
2018-03-28T09:54:57.498Z,12.60
2018-03-28T09:57:23.753Z,12.70
2018-03-28T09:59:50.026Z,12.60
2018-03-28T10:02:16.338Z,12.70
2018-03-28T10:04:48.610Z,12.80
2018-03-28T10:07:14.861Z,12.70
2018-03-28T10:09:41.106Z,12.50
2018-03-28T10:12:07.365Z,12.50
2018-03-28T10:14:33.870Z,12.40
2018-03-28T10:17:00.226Z,12.40
2018-03-28T10:19:26.504Z,12.60
2018-03-28T10:21:52.742Z,12.60
2018-03-28T10:24:19.018Z,12.50
2018-03-28T10:26:45.274Z,12.40
2018-03-28T10:29:12.282Z,12.30
2018-03-28T10:31:38.586Z,12.30
2018-03-28T10:34:04.892Z,12.20
2018-03-28T10:36:31.168Z,12.20
2018-03-28T10:38:57.440Z,12.30
2018-03-28T10:41:23.699Z,12.20
2018-03-28T10:43:49.961Z,12.20
2018-03-28T10:46:17.241Z,12.20
2018-03-28T10:48:43.492Z,11.80
2018-03-28T10:51:09.789Z,11.80
2018-03-28T10:53:36.826Z,11.80
2018-03-28T10:56:03.082Z,11.80
2018-03-28T10:58:29.373Z,11.80
2018-03-28T11:00:56.411Z,11.80
2018-03-28T11:03:22.706Z,11.80
2018-03-28T11:05:49.018Z,11.70
2018-03-28T11:08:16.117Z,11.70
2018-03-28T11:10:42.376Z,11.70
2018-03-28T11:13:08.665Z,11.80
2018-03-28T11:15:34.933Z,11.90
2018-03-28T11:18:01.278Z,11.90
2018-03-28T11:20:27.648Z,11.90
2018-03-28T11:22:53.829Z,11.70
2018-03-28T11:25:20.859Z,11.70
2018-03-28T11:27:47.153Z,11.70
2018-03-28T11:30:14.105Z,11.20
2018-03-28T11:32:40.359Z,11.20
2018-03-28T11:35:06.663Z,11.00
2018-03-28T11:37:33.010Z,11.00
2018-03-28T11:39:59.991Z,10.80
2018-03-28T11:42:26.248Z,10.80
2018-03-28T11:44:52.502Z,10.90
2018-03-28T11:47:18.740Z,10.80
2018-03-28T11:49:44.962Z,10.70
2018-03-28T11:52:11.185Z,10.70
2018-03-28T11:54:37.417Z,10.70
2018-03-28T11:57:04.411Z,10.60
2018-03-28T11:59:30.640Z,10.60
2018-03-28T12:01:56.926Z,10.80
2018-03-28T12:04:23.166Z,10.70
2018-03-28T12:06:49.409Z,10.90
2018-03-28T12:09:16.371Z,10.80
2018-03-28T12:11:42.608Z,10.80
2018-03-28T12:14:08.819Z,11.00
2018-03-28T12:16:35.065Z,10.70
2018-03-28T12:19:01.318Z,10.70
2018-03-28T12:21:27.557Z,10.80
2018-03-28T12:23:53.809Z,10.80
2018-03-28T12:26:20.041Z,11.00
2018-03-28T12:28:46.408Z,10.80
2018-03-28T12:31:12.620Z,11.20
2018-03-28T12:33:38.819Z,10.80
2018-03-28T12:36:05.094Z,11.10
2018-03-28T12:38:31.338Z,11.00
2018-03-28T12:40:57.585Z,11.00
2018-03-28T12:43:23.836Z,11.20
2018-03-28T12:45:50.057Z,11.30
2018-03-28T12:48:16.326Z,11.20
2018-03-28T12:50:42.554Z,11.20
2018-03-28T12:53:08.785Z,11.20
2018-03-28T12:55:35.214Z,11.00
2018-03-28T12:58:07.173Z,10.90
2018-03-28T13:00:33.418Z,10.80
2018-03-28T13:02:59.630Z,10.60
2018-03-28T13:05:25.884Z,10.50
2018-03-28T13:07:52.186Z,10.30
2018-03-28T13:10:19.134Z,10.30
2018-03-28T13:12:45.386Z,10.30
2018-03-28T13:15:11.609Z,10.20
2018-03-28T13:17:37.880Z,10.20
2018-03-28T13:20:07.716Z,10.20
2018-03-28T13:22:33.969Z,10.10
2018-03-28T13:25:01.285Z,10.20
2018-03-28T13:27:27.565Z,10.10
2018-03-28T13:29:53.814Z,10.30
2018-03-28T13:32:20.065Z,10.30
2018-03-28T13:34:52.074Z,10.30
2018-03-28T13:37:18.345Z,10.30
2018-03-28T13:39:44.606Z,10.10
2018-03-28T13:42:10.845Z,10.10
2018-03-28T13:44:38.629Z,10.30
2018-03-28T13:47:05.646Z,10.30
2018-03-28T13:49:37.537Z,10.00
2018-03-28T13:52:05.269Z,10.00
2018-03-28T13:54:31.497Z,9.90
2018-03-28T13:56:57.721Z,9.90
2018-03-28T13:59:23.949Z,9.70
2018-03-28T14:01:50.182Z,9.30
2018-03-28T14:04:16.413Z,9.40
2018-03-28T14:06:42.669Z,9.30
2018-03-28T14:09:08.897Z,9.30
2018-03-28T14:11:35.131Z,9.40
2018-03-28T14:14:02.900Z,9.30
2018-03-28T14:16:29.193Z,9.30
2018-03-28T14:18:55.434Z,9.30
2018-03-28T14:21:21.649Z,9.20
2018-03-28T14:23:47.911Z,9.10
2018-03-28T14:26:14.930Z,9.10
2018-03-28T14:28:41.190Z,9.00
2018-03-28T14:31:07.482Z,9.10
2018-03-28T14:33:34.470Z,9.00
2018-03-28T14:36:00.776Z,9.10
2018-03-28T14:38:27.765Z,9.00
2018-03-28T14:40:54.745Z,9.00
2018-03-28T14:43:20.990Z,9.00
2018-03-28T14:45:47.310Z,9.10
2018-03-28T14:48:14.286Z,8.70
2018-03-28T14:50:40.519Z,8.70
2018-03-28T14:53:06.771Z,8.50
2018-03-28T14:55:33.001Z,8.20
2018-03-28T14:57:59.245Z,8.00
2018-03-28T15:00:25.523Z,7.90
2018-03-28T15:02:51.769Z,7.90
2018-03-28T15:05:17.982Z,7.90
2018-03-28T15:07:44.250Z,7.60
2018-03-28T15:10:10.475Z,7.70
2018-03-28T15:12:36.746Z,7.70
2018-03-28T15:15:03.007Z,7.70
2018-03-28T15:17:30.502Z,7.80
2018-03-28T15:19:57.889Z,7.70
2018-03-28T15:22:24.117Z,7.70
2018-03-28T15:24:50.346Z,7.70
2018-03-28T15:27:16.581Z,7.80
2018-03-28T15:29:42.866Z,7.80
2018-03-28T15:32:10.624Z,7.90
2018-03-28T15:34:36.912Z,7.90
2018-03-28T15:37:03.202Z,7.90
2018-03-28T15:39:29.480Z,7.90
2018-03-28T15:41:56.546Z,8.00
2018-03-28T15:44:22.753Z,7.90
2018-03-28T15:46:49.768Z,8.00
2018-03-28T15:49:16.021Z,7.90
2018-03-28T15:51:42.554Z,8.00
2018-03-28T15:54:08.894Z,8.10
2018-03-28T15:56:35.204Z,8.10
2018-03-28T15:59:08.469Z,8.20
2018-03-28T16:01:36.235Z,7.90
2018-03-28T16:04:02.521Z,7.80
2018-03-28T16:06:28.737Z,8.00
2018-03-28T16:08:54.999Z,8.20
2018-03-28T16:11:21.257Z,8.10
2018-03-28T16:13:47.516Z,8.20
2018-03-28T16:16:13.877Z,8.00
2018-03-28T16:18:40.138Z,7.90
2018-03-28T16:21:06.414Z,7.80
2018-03-28T16:23:32.735Z,7.70
2018-03-28T16:25:59.766Z,7.70
2018-03-28T16:28:26.010Z,7.60
2018-03-28T16:30:52.261Z,7.60
2018-03-28T16:33:19.247Z,7.60
2018-03-28T16:35:45.548Z,7.70
2018-03-28T16:38:11.785Z,7.80
2018-03-28T16:40:38.749Z,8.20
2018-03-28T16:43:05.011Z,8.20
2018-03-28T16:45:32.294Z,8.10
2018-03-28T16:47:58.698Z,8.20
2018-03-28T16:50:25.389Z,8.30
2018-03-28T16:52:51.625Z,8.40
2018-03-28T16:55:17.895Z,8.30
2018-03-28T16:57:44.073Z,8.20
2018-03-28T17:00:11.020Z,8.30
2018-03-28T17:02:41.222Z,8.30
2018-03-28T17:05:07.488Z,8.30
2018-03-28T17:07:33.764Z,8.50
2018-03-28T17:10:00.011Z,8.50
2018-03-28T17:12:26.317Z,8.50
2018-03-28T17:14:52.546Z,8.50
2018-03-28T17:17:19.564Z,8.70
2018-03-28T17:19:45.761Z,8.60
2018-03-28T17:22:12.442Z,8.50
2018-03-28T17:24:40.833Z,8.50
2018-03-28T17:27:07.079Z,8.50
2018-03-28T17:29:33.385Z,8.50
2018-03-28T17:32:00.382Z,8.40
2018-03-28T17:34:26.669Z,8.30
2018-03-28T17:36:53.734Z,8.50
2018-03-28T17:39:20.008Z,8.50
2018-03-28T17:41:46.407Z,8.50
2018-03-28T17:44:12.878Z,8.60
2018-03-28T17:46:42.436Z,8.40
2018-03-28T17:49:10.102Z,8.60
2018-03-28T17:51:36.368Z,8.50
2018-03-28T17:54:02.669Z,8.60
2018-03-28T17:56:29.071Z,8.60
2018-03-28T17:58:56.180Z,8.60
2018-03-28T18:01:22.440Z,8.60
2018-03-28T18:03:48.705Z,8.50
2018-03-28T18:06:15.008Z,8.40
2018-03-28T18:08:41.313Z,8.50
2018-03-28T18:11:08.330Z,8.70
2018-03-28T18:13:34.619Z,8.70
2018-03-28T18:16:01.015Z,8.70
2018-03-28T18:18:28.066Z,8.90
2018-03-28T18:20:54.364Z,8.90
2018-03-28T18:23:20.678Z,9.00
2018-03-28T18:25:46.962Z,9.10
2018-03-28T18:28:13.201Z,9.30
2018-03-28T18:30:39.418Z,9.40
2018-03-28T18:33:05.646Z,9.40
2018-03-28T18:35:31.933Z,9.50
2018-03-28T18:37:58.182Z,9.50
2018-03-28T18:40:24.471Z,9.30
2018-03-28T18:42:50.717Z,9.20
2018-03-28T18:45:17.750Z,9.20
2018-03-28T18:47:44.074Z,9.10
2018-03-28T18:50:10.293Z,9.10
2018-03-28T18:52:37.298Z,9.00
2018-03-28T18:55:03.578Z,9.10
2018-03-28T18:57:30.593Z,9.00
2018-03-28T18:59:56.865Z,9.00
2018-03-28T19:02:23.907Z,9.00
2018-03-28T19:04:50.155Z,9.00
2018-03-28T19:07:17.201Z,9.00
2018-03-28T19:09:43.465Z,9.00
2018-03-28T19:12:09.728Z,9.00
2018-03-28T19:14:35.984Z,9.00
2018-03-28T19:17:03.001Z,8.90
2018-03-28T19:19:30.027Z,8.90
2018-03-28T19:21:56.362Z,8.90
2018-03-28T19:24:22.657Z,9.00
2018-03-28T19:26:49.713Z,9.00
2018-03-28T19:29:15.966Z,9.00
2018-03-28T19:31:42.982Z,9.00
2018-03-28T19:34:09.234Z,9.00
2018-03-28T19:36:35.539Z,8.90
2018-03-28T19:39:01.829Z,8.50
2018-03-28T19:41:28.094Z,8.20
2018-03-28T19:43:54.576Z,8.00
2018-03-28T19:46:20.881Z,7.80
2018-03-28T19:48:47.930Z,7.40
2018-03-28T19:51:14.182Z,7.40
2018-03-28T19:53:41.193Z,7.30
2018-03-28T19:56:07.483Z,7.30
2018-03-28T19:58:33.708Z,7.20
2018-03-28T20:00:59.953Z,7.10
2018-03-28T20:03:26.313Z,6.90
2018-03-28T20:05:53.292Z,6.80
2018-03-28T20:08:20.276Z,6.70
2018-03-28T20:10:46.550Z,6.60
2018-03-28T20:13:12.795Z,6.70
2018-03-28T20:15:39.149Z,6.60
2018-03-28T20:18:06.199Z,6.40
2018-03-28T20:20:32.541Z,6.40
2018-03-28T20:22:58.948Z,6.30
2018-03-28T20:25:25.206Z,6.40
2018-03-28T20:27:53.909Z,6.40
2018-03-28T20:30:20.150Z,6.30
2018-03-28T20:32:46.414Z,6.30
2018-03-28T20:35:12.709Z,6.30
2018-03-28T20:37:38.990Z,6.30
2018-03-28T20:40:05.294Z,6.30
2018-03-28T20:42:31.626Z,6.30
2018-03-28T20:44:58.126Z,6.30
2018-03-28T20:47:25.166Z,6.20
2018-03-28T20:49:51.457Z,6.20
2018-03-28T20:52:18.533Z,6.20
2018-03-28T20:54:45.901Z,6.10
2018-03-28T20:57:12.251Z,6.10
2018-03-28T20:59:38.518Z,6.10
2018-03-28T21:02:05.414Z,6.10
2018-03-28T21:04:31.769Z,6.10
2018-03-28T21:06:58.935Z,6.10
2018-03-28T21:09:26.096Z,6.10
2018-03-28T21:11:52.455Z,6.10
2018-03-28T21:14:18.814Z,6.10
2018-03-28T21:16:45.941Z,6.10
2018-03-28T21:19:12.280Z,6.10
2018-03-28T21:21:39.342Z,6.10
2018-03-28T21:24:05.717Z,6.00
2018-03-28T21:26:32.041Z,6.00
2018-03-28T21:28:58.317Z,5.90
2018-03-28T21:31:24.603Z,5.90
2018-03-28T21:33:50.861Z,5.70
2018-03-28T21:36:17.238Z,5.70
2018-03-28T21:38:43.511Z,5.70
2018-03-28T21:41:10.657Z,5.60
2018-03-28T21:43:36.874Z,5.60
2018-03-28T21:46:03.175Z,5.60
2018-03-28T21:48:30.241Z,5.40
2018-03-28T21:50:57.041Z,5.40
2018-03-28T21:53:23.101Z,5.40
2018-03-28T21:55:49.978Z,5.40
2018-03-28T21:58:16.256Z,5.40
2018-03-28T22:00:42.461Z,5.40
2018-03-28T22:03:08.651Z,5.30
2018-03-28T22:05:34.858Z,5.20
2018-03-28T22:08:01.730Z,5.10
2018-03-28T22:10:27.798Z,5.10
2018-03-28T22:12:54.089Z,5.00
2018-03-28T22:15:20.880Z,5.00
2018-03-28T22:17:46.926Z,5.00
2018-03-28T22:20:12.973Z,5.00
2018-03-28T22:22:39.017Z,4.90
2018-03-28T22:25:05.102Z,5.00
2018-03-28T22:27:31.541Z,4.90
2018-03-28T22:29:57.636Z,4.80
2018-03-28T22:32:23.721Z,4.90
2018-03-28T22:34:50.563Z,4.90
2018-03-28T22:37:16.691Z,4.80
2018-03-28T22:39:45.624Z,4.90
2018-03-28T22:42:11.697Z,5.00
2018-03-28T22:44:39.054Z,5.00
2018-03-28T22:47:05.122Z,5.00
2018-03-28T22:49:32.928Z,5.10
2018-03-28T22:54:33.096Z,5.10
2018-03-28T22:56:59.262Z,5.10
2018-03-28T22:59:25.320Z,5.10
2018-03-28T23:01:51.381Z,5.10
2018-03-28T23:04:18.179Z,5.10
2018-03-28T23:06:45.146Z,5.10
2018-03-28T23:09:11.240Z,5.00
2018-03-28T23:11:39.066Z,4.90
2018-03-28T23:14:05.138Z,4.90
2018-03-28T23:16:31.205Z,4.90
2018-03-28T23:18:57.294Z,5.00
2018-03-28T23:21:23.342Z,4.90
2018-03-28T23:23:49.406Z,5.00
2018-03-28T23:26:16.197Z,5.00
2018-03-28T23:28:42.258Z,4.90
2018-03-28T23:31:08.306Z,5.00
2018-03-28T23:33:34.379Z,5.00
2018-03-28T23:36:00.490Z,5.10
2018-03-28T23:38:26.543Z,5.00
2018-03-28T23:40:53.389Z,5.00
2018-03-28T23:43:20.172Z,5.10
2018-03-28T23:45:46.218Z,5.00
2018-03-28T23:48:12.265Z,5.10
2018-03-28T23:50:38.314Z,5.10
2018-03-28T23:53:04.383Z,5.10
2018-03-28T23:55:31.187Z,5.30
2018-03-28T23:57:57.246Z,5.30
